Thatcher, Colorado
Current Conditions -  °F | °C
As of 11:54 PM on Wednesday 17 Dec 2014 (Local Time) from KTAD Reporting Station
Clear Clear  
Wind Chill: 16°   Ceiling: Unl
Heat Index: 25°   Visibility: 10mi
Dew Point: 21°   Wind: 8mph
Humidity: 85%   Direction: 300°WNW
Pressure: 29.99"   Gusts: NA
Location:  37.5307°N, 104.063°W
Report Text: KTAD 180654Z AUTO 30007KT 10SM CLR M04/M06 A2999 RMK AO2 SLP163 T10391061 400561050
Loading
Personal Weather Stations






























Interactive Weather Map New forecast layout! Learn more

10-Day Weather Forecast

Advertisements
Track Severe Weather on mobile